createdAt,value
2023-03-03T00:02:29.246Z,101274.16
2023-03-03T00:09:12.881Z,101267.78
2023-03-03T00:16:11.718Z,101270.16
2023-03-03T00:22:54.844Z,101286.34
2023-03-03T00:29:46.072Z,101270.63
2023-03-03T00:36:37.880Z,101263.75
2023-03-03T00:43:29.424Z,101252.63
2023-03-03T00:50:11.771Z,101232.91
2023-03-03T00:56:54.697Z,101212.34
2023-03-03T01:03:37.475Z,101210.75
2023-03-03T01:10:20.448Z,101218.56
2023-03-03T01:17:03.853Z,101218.69
2023-03-03T01:23:46.291Z,101225.69
2023-03-03T01:30:28.761Z,101216.41
2023-03-03T01:37:11.072Z,101201.84
2023-03-03T01:43:53.416Z,101185.50
2023-03-03T01:50:56.274Z,101175.22
2023-03-03T01:57:44.943Z,101184.78
2023-03-03T02:04:27.604Z,101171.88
2023-03-03T02:11:13.032Z,101174.47
2023-03-03T02:18:15.731Z,101171.88
2023-03-03T02:25:02.395Z,101153.84
2023-03-03T02:31:45.324Z,101148.75
2023-03-03T02:38:36.461Z,101154.84
2023-03-03T02:45:18.877Z,101150.66
2023-03-03T02:52:04.275Z,101152.50
2023-03-03T02:58:47.025Z,101151.78
2023-03-03T03:05:29.558Z,101156.13
2023-03-03T03:12:12.845Z,101149.94
2023-03-03T03:18:56.060Z,101141.22
2023-03-03T03:25:45.312Z,101147.16
2023-03-03T03:32:31.778Z,101151.44
2023-03-03T03:39:14.407Z,101151.44
2023-03-03T03:46:01.571Z,101149.75
2023-03-03T03:52:45.197Z,101153.25
2023-03-03T03:59:28.476Z,101152.41
2023-03-03T04:06:11.132Z,101155.03
2023-03-03T04:12:53.957Z,101142.25
2023-03-03T04:19:37.836Z,101132.88
2023-03-03T04:26:21.994Z,101126.13
2023-03-03T04:33:05.179Z,101121.06
2023-03-03T04:39:47.735Z,101135.81
2023-03-03T04:46:30.525Z,101142.88
2023-03-03T04:53:13.754Z,101133.75
2023-03-03T04:59:58.086Z,101133.22
2023-03-03T05:06:41.067Z,101094.72
2023-03-03T05:13:23.732Z,101104.63
2023-03-03T05:20:08.604Z,101101.50
2023-03-03T05:26:51.019Z,101089.72
2023-03-03T05:33:33.428Z,101119.31
2023-03-03T05:40:16.160Z,101119.56
2023-03-03T05:46:59.317Z,101117.16
2023-03-03T05:53:42.506Z,101121.69
2023-03-03T06:00:25.137Z,101115.88
2023-03-03T06:07:07.497Z,101122.16
2023-03-03T06:13:50.027Z,101132.75
2023-03-03T06:20:33.207Z,101123.56
2023-03-03T06:27:15.622Z,101135.09
2023-03-03T06:33:57.958Z,101128.56
2023-03-03T06:40:40.307Z,101129.00
2023-03-03T06:47:22.801Z,101124.28
2023-03-03T06:54:21.189Z,101123.91
2023-03-03T07:01:03.620Z,101119.13
2023-03-03T07:07:46.218Z,101115.94
2023-03-03T07:14:30.645Z,101114.56
2023-03-03T07:21:33.585Z,101121.91
2023-03-03T07:28:34.335Z,101140.53
2023-03-03T07:35:44.844Z,101146.13
2023-03-03T07:42:41.285Z,101146.41
2023-03-03T07:49:44.016Z,101138.91
2023-03-03T07:56:35.272Z,101127.06
2023-03-03T08:03:20.917Z,101131.56
2023-03-03T08:10:26.697Z,101139.50
2023-03-03T08:17:22.963Z,101131.00
2023-03-03T08:24:08.202Z,101134.63
2023-03-03T08:30:51.061Z,101121.66
2023-03-03T08:37:33.730Z,101109.63
2023-03-03T08:44:16.180Z,101114.19
2023-03-03T08:51:04.976Z,101123.94
2023-03-03T08:58:07.933Z,101113.75
2023-03-03T09:04:50.325Z,101121.81
2023-03-03T09:11:33.888Z,101126.22
2023-03-03T09:18:51.360Z,101126.38
2023-03-03T09:25:37.827Z,101115.16
2023-03-03T09:32:39.320Z,101111.81
2023-03-03T09:39:29.141Z,101106.75
2023-03-03T09:46:49.418Z,101113.84
2023-03-03T09:53:59.180Z,101115.63
2023-03-03T10:01:22.315Z,101122.66
2023-03-03T10:08:36.310Z,101101.94
2023-03-03T10:15:52.520Z,101097.69
2023-03-03T10:22:49.849Z,101091.66
2023-03-03T10:29:45.650Z,101080.38
2023-03-03T10:36:54.177Z,101083.91
2023-03-03T10:44:07.277Z,101086.59
2023-03-03T10:51:55.968Z,101082.34
2023-03-03T10:58:55.586Z,101082.44
2023-03-03T11:06:12.311Z,101083.41
2023-03-03T11:13:30.989Z,101074.78
2023-03-03T11:20:46.273Z,101087.91
2023-03-03T11:28:22.163Z,101077.47
2023-03-03T11:35:07.544Z,101079.25
2023-03-03T11:42:43.073Z,101070.59
2023-03-03T11:49:57.722Z,101049.69
2023-03-03T11:56:47.451Z,101039.25
2023-03-03T12:03:45.233Z,101029.72
2023-03-03T12:10:43.086Z,101029.75
2023-03-03T12:17:43.260Z,101004.38
2023-03-03T12:25:05.128Z,101004.34
2023-03-03T12:32:31.311Z,101008.69
2023-03-03T12:39:34.812Z,100997.28
2023-03-03T12:46:36.106Z,100978.88
2023-03-03T12:53:40.304Z,100980.56
2023-03-03T13:00:52.715Z,100973.53
2023-03-03T13:07:46.193Z,100973.47
2023-03-03T13:15:16.629Z,100971.63
2023-03-03T13:22:37.798Z,100964.47
2023-03-03T13:29:24.419Z,100937.34
2023-03-03T13:36:11.592Z,100932.09
2023-03-03T13:43:03.052Z,100928.66
2023-03-03T13:50:09.823Z,100926.94
2023-03-03T13:57:14.359Z,100930.53
2023-03-03T14:04:30.979Z,100936.63
2023-03-03T14:11:55.279Z,100927.00
2023-03-03T14:19:05.719Z,100907.63
2023-03-03T14:26:09.816Z,100896.94
2023-03-03T14:33:10.538Z,100881.03
2023-03-03T14:40:21.934Z,100872.41
2023-03-03T14:47:22.619Z,100869.13
2023-03-03T14:54:24.598Z,100871.94
2023-03-03T15:01:34.109Z,100862.50
2023-03-03T15:08:23.105Z,100853.06
2023-03-03T15:15:11.347Z,100851.41
2023-03-03T15:21:56.988Z,100845.44
2023-03-03T15:29:16.543Z,100846.34
2023-03-03T15:36:31.682Z,100838.53
2023-03-03T15:44:00.381Z,100833.34
2023-03-03T15:51:12.759Z,100827.22
2023-03-03T15:58:43.039Z,100815.03
2023-03-03T16:05:54.261Z,100804.56
2023-03-03T16:12:58.215Z,100808.06
2023-03-03T16:20:01.434Z,100813.25
2023-03-03T16:27:08.622Z,100802.75
2023-03-03T16:34:11.753Z,100792.28
2023-03-03T16:41:01.943Z,100793.09
2023-03-03T16:47:47.474Z,100792.19
2023-03-03T16:54:57.309Z,100773.88
2023-03-03T17:02:21.057Z,100763.41
2023-03-03T17:09:31.810Z,100744.22
2023-03-03T17:16:20.518Z,100740.72
2023-03-03T17:23:33.839Z,100732.88
2023-03-03T17:30:36.725Z,100726.75
2023-03-03T17:38:06.764Z,100721.53
2023-03-03T17:45:15.155Z,100704.97
2023-03-03T17:52:49.114Z,100698.84
2023-03-03T18:00:00.649Z,100692.75
2023-03-03T18:07:12.978Z,100679.66
2023-03-03T18:14:42.171Z,100684.81
2023-03-03T18:21:45.084Z,100666.47
2023-03-03T18:29:18.287Z,100669.00
2023-03-03T18:36:27.079Z,100658.50
2023-03-03T18:43:43.232Z,100636.72
2023-03-03T18:50:41.084Z,100635.75
2023-03-03T18:57:23.396Z,100631.34
2023-03-03T19:04:16.403Z,100641.72
2023-03-03T19:11:01.479Z,100634.69
2023-03-03T19:17:49.976Z,100624.19
2023-03-03T19:24:34.611Z,100628.47
2023-03-03T19:31:25.902Z,100619.69
2023-03-03T19:38:18.655Z,100594.44
2023-03-03T19:45:46.254Z,100584.81
2023-03-03T19:53:00.801Z,100588.22
2023-03-03T20:00:09.523Z,100582.94
2023-03-03T20:07:39.281Z,100591.59
2023-03-03T20:14:57.917Z,100597.59
2023-03-03T20:22:09.596Z,100602.81
2023-03-03T20:29:14.089Z,100602.81
2023-03-03T20:36:24.524Z,100576.84
2023-03-03T20:43:19.009Z,100576.00
2023-03-03T20:50:01.389Z,100560.38
2023-03-03T20:56:56.571Z,100563.03
2023-03-03T21:03:44.987Z,100542.22
2023-03-03T21:10:36.252Z,100527.47
2023-03-03T21:17:30.098Z,100524.00
2023-03-03T21:24:15.411Z,100525.75
2023-03-03T21:31:13.383Z,100527.50
2023-03-03T21:37:57.953Z,100516.22
2023-03-03T21:44:50.451Z,100497.19
2023-03-03T21:51:32.944Z,100450.34
2023-03-03T21:58:16.663Z,100440.81
2023-03-03T22:05:00.968Z,100426.06
2023-03-03T22:11:43.505Z,100420.00
2023-03-03T22:18:26.189Z,100406.13
2023-03-03T22:25:09.638Z,100396.56
2023-03-03T22:31:52.035Z,100404.38
2023-03-03T22:38:35.030Z,100404.41
2023-03-03T22:45:17.849Z,100408.75
2023-03-03T22:52:02.693Z,100404.44
2023-03-03T22:58:45.189Z,100394.94
2023-03-03T23:05:27.615Z,100382.81
2023-03-03T23:12:09.985Z,100375.00
2023-03-03T23:18:52.292Z,100353.31
2023-03-03T23:25:34.643Z,100337.72
2023-03-03T23:32:17.068Z,100331.59
2023-03-03T23:38:59.417Z,100317.75
2023-03-03T23:45:41.954Z,100309.94
2023-03-03T23:52:24.549Z,100317.75
2023-03-03T23:59:10.396Z,100303.00
